Time;durP1;ratioP1;P1;durP2;ratioP2;P2;SDS_P1;SDS_P2;PMS_P1;PMS_P2;Temp;Humidity;BMP_temperature;BMP_pressure;BME280_temperature;BME280_humidity;BME280_pressure;Samples;Min_cycle;Max_cycle;Signal;HPM_P1;HPM_P2
2024/02/13 00:00:10;;;;;;;6.95;1.48;;;;;;;;;;5029448;28;20029;-67
2024/02/13 00:02:39;;;;;;;8.40;1.70;;;;;;;;;;5030211;28;20526;-67
2024/02/13 00:05:08;;;;;;;10.57;1.77;;;;;;;;;;5026671;28;20642;-68
2024/02/13 00:07:38;;;;;;;8.23;1.73;;;;;;;;;;5029968;28;20109;-68
2024/02/13 00:10:07;;;;;;;12.32;2.03;;;;;;;;;;5012750;28;20563;-68
2024/02/13 00:12:33;;;;;;;9.48;2.08;;;;;;;;;;5030281;28;20045;-68
2024/02/13 00:14:58;;;;;;;10.00;1.38;;;;;;;;;;5025816;28;20425;-68
2024/02/13 00:17:23;;;;;;;5.38;2.08;;;;;;;;;;5027059;28;20484;-68
2024/02/13 00:19:53;;;;;;;9.40;1.35;;;;;;;;;;5029751;28;20124;-68
2024/02/13 00:22:19;;;;;;;8.35;1.30;;;;;;;;;;5029994;28;20029;-67
2024/02/13 00:24:44;;;;;;;6.60;1.17;;;;;;;;;;5028677;28;20036;-67
2024/02/13 00:27:10;;;;;;;9.52;1.40;;;;;;;;;;5029991;28;20044;-68
2024/02/13 00:29:35;;;;;;;5.53;1.27;;;;;;;;;;5030156;28;20037;-68
2024/02/13 00:32:00;;;;;;;8.60;1.23;;;;;;;;;;5029710;28;20044;-67
2024/02/13 00:34:26;;;;;;;6.90;1.33;;;;;;;;;;5030054;28;20049;-68
2024/02/13 00:36:52;;;;;;;8.05;0.90;;;;;;;;;;5028423;28;20037;-67
2024/02/13 00:39:18;;;;;;;6.57;2.17;;;;;;;;;;5029982;28;20026;-67
2024/02/13 00:41:43;;;;;;;13.80;1.52;;;;;;;;;;5029658;28;20037;-67
2024/02/13 00:44:09;;;;;;;8.45;2.55;;;;;;;;;;5027595;28;20057;-68
2024/02/13 00:46:35;;;;;;;5.45;1.10;;;;;;;;;;5028333;28;20425;-68
2024/02/13 00:49:00;;;;;;;4.55;1.10;;;;;;;;;;5025876;28;20056;-67
2024/02/13 00:51:26;;;;;;;6.78;1.20;;;;;;;;;;5021518;28;20536;-67
2024/02/13 00:53:52;;;;;;;5.30;1.30;;;;;;;;;;5029471;28;20119;-67
2024/02/13 00:56:18;;;;;;;5.50;1.20;;;;;;;;;;5029529;28;20176;-68
2024/02/13 00:58:46;;;;;;;8.68;1.33;;;;;;;;;;5029676;28;20191;-68
2024/02/13 01:01:11;;;;;;;3.70;1.23;;;;;;;;;;5029512;28;20484;-68
2024/02/13 01:03:36;;;;;;;6.45;1.00;;;;;;;;;;5029019;28;20042;-68
2024/02/13 01:06:03;;;;;;;4.03;0.98;;;;;;;;;;5029519;28;20045;-68
2024/02/13 01:08:28;;;;;;;10.18;1.67;;;;;;;;;;5033748;28;20048;-68
2024/02/13 01:10:54;;;;;;;4.00;1.02;;;;;;;;;;5029275;28;20033;-67
2024/02/13 01:13:20;;;;;;;16.60;1.30;;;;;;;;;;5028314;28;20037;-67
2024/02/13 01:15:45;;;;;;;4.82;1.58;;;;;;;;;;5011964;28;20113;-67
2024/02/13 01:18:11;;;;;;;6.40;1.05;;;;;;;;;;5031627;28;20396;-68
2024/02/13 01:20:36;;;;;;;6.13;1.48;;;;;;;;;;5033091;28;20403;-68
2024/02/13 01:23:02;;;;;;;7.47;1.13;;;;;;;;;;5031516;28;20044;-68
2024/02/13 01:25:28;;;;;;;12.80;1.75;;;;;;;;;;5032777;28;20041;-68
2024/02/13 01:27:55;;;;;;;8.05;1.00;;;;;;;;;;5032909;28;20036;-68
2024/02/13 01:30:20;;;;;;;12.18;1.25;;;;;;;;;;5035601;28;20091;-68
2024/02/13 01:32:48;;;;;;;4.07;1.23;;;;;;;;;;5032727;28;20045;-67
2024/02/13 01:35:16;;;;;;;7.40;1.38;;;;;;;;;;5038485;28;20025;-67
2024/02/13 01:37:41;;;;;;;3.15;1.00;;;;;;;;;;5025549;28;20096;-67
2024/02/13 01:40:07;;;;;;;5.82;1.33;;;;;;;;;;5033076;28;20045;-68
2024/02/13 01:42:37;;;;;;;5.43;0.98;;;;;;;;;;5032702;28;20060;-68
2024/02/13 01:45:06;;;;;;;7.30;1.30;;;;;;;;;;5032827;28;20354;-68
2024/02/13 01:47:32;;;;;;;10.35;1.05;;;;;;;;;;5014898;28;20076;-68
2024/02/13 01:49:58;;;;;;;17.52;1.40;;;;;;;;;;5032041;28;20428;-69
2024/02/13 01:52:23;;;;;;;6.47;1.17;;;;;;;;;;5032510;28;20040;-67
2024/02/13 01:54:49;;;;;;;7.95;1.33;;;;;;;;;;5039093;28;20479;-67
2024/02/13 01:57:14;;;;;;;9.00;1.05;;;;;;;;;;5031774;28;20025;-68
2024/02/13 01:59:39;;;;;;;5.00;0.80;;;;;;;;;;5037407;28;20044;-67
2024/02/13 02:02:10;;;;;;;5.18;1.15;;;;;;;;;;5032379;28;20037;-67
2024/02/13 02:04:38;;;;;;;10.93;1.38;;;;;;;;;;5030987;28;20445;-68
2024/02/13 02:07:03;;;;;;;7.60;1.00;;;;;;;;;;5032268;28;20065;-68
2024/02/13 02:09:30;;;;;;;5.50;0.85;;;;;;;;;;5032727;28;20127;-67
2024/02/13 02:11:57;;;;;;;12.10;1.00;;;;;;;;;;5031358;28;20033;-68
2024/02/13 02:14:22;;;;;;;1.08;0.65;;;;;;;;;;5030475;28;20040;-67
2024/02/13 02:16:49;;;;;;;8.40;1.05;;;;;;;;;;5032206;28;20037;-67
2024/02/13 02:19:14;;;;;;;9.50;0.90;;;;;;;;;;5032697;28;20041;-67
2024/02/13 02:21:40;;;;;;;2.90;0.80;;;;;;;;;;5032254;28;20036;-67
2024/02/13 02:24:07;;;;;;;8.55;0.80;;;;;;;;;;5032328;28;20083;-68
2024/02/13 02:26:32;;;;;;;2.28;0.80;;;;;;;;;;5030909;28;20029;-68
2024/02/13 02:28:58;;;;;;;13.88;1.17;;;;;;;;;;5027839;28;20037;-67
2024/02/13 02:31:23;;;;;;;4.15;1.05;;;;;;;;;;5032097;28;20066;-67
2024/02/13 02:33:48;;;;;;;4.35;1.30;;;;;;;;;;5032020;28;20478;-67
2024/02/13 02:36:14;;;;;;;6.10;1.08;;;;;;;;;;5031622;28;20030;-68
2024/02/13 02:38:39;;;;;;;5.40;1.20;;;;;;;;;;5032163;28;20037;-68
2024/02/13 02:41:06;;;;;;;3.40;0.80;;;;;;;;;;5032254;28;20051;-67
2024/02/13 02:43:32;;;;;;;6.88;1.13;;;;;;;;;;5031621;28;20112;-67
2024/02/13 02:45:58;;;;;;;6.13;0.90;;;;;;;;;;5031902;28;20124;-67
2024/02/13 02:48:24;;;;;;;6.82;1.02;;;;;;;;;;5031920;28;20033;-67
2024/02/13 02:50:49;;;;;;;5.95;0.80;;;;;;;;;;5031866;28;20030;-68
2024/02/13 02:53:14;;;;;;;6.55;1.38;;;;;;;;;;5031313;28;20033;-67
2024/02/13 02:55:40;;;;;;;8.43;1.20;;;;;;;;;;5031624;28;20172;-67
2024/02/13 02:58:08;;;;;;;3.30;1.17;;;;;;;;;;5030869;28;20119;-67
2024/02/13 03:00:35;;;;;;;4.90;1.38;;;;;;;;;;5034931;28;20033;-67
2024/02/13 03:03:02;;;;;;;2.08;1.00;;;;;;;;;;5035460;28;20036;-67
2024/02/13 03:05:28;;;;;;;5.60;0.90;;;;;;;;;;5031209;28;20140;-67
2024/02/13 03:07:54;;;;;;;4.10;0.90;;;;;;;;;;5030533;28;20140;-67
2024/02/13 03:10:20;;;;;;;3.13;0.65;;;;;;;;;;5030982;28;20112;-67
2024/02/13 03:12:46;;;;;;;6.80;0.98;;;;;;;;;;5031362;28;20115;-66
2024/02/13 03:15:12;;;;;;;5.47;1.23;;;;;;;;;;5028110;28;20053;-67
2024/02/13 03:17:38;;;;;;;7.28;1.35;;;;;;;;;;5029777;28;20030;-67
2024/02/13 03:20:04;;;;;;;4.70;0.90;;;;;;;;;;5029363;28;20036;-67
2024/02/13 03:22:35;;;;;;;5.35;1.20;;;;;;;;;;5038758;28;20083;-67
2024/02/13 03:25:01;;;;;;;1.15;0.57;;;;;;;;;;5031104;28;20036;-67
2024/02/13 03:27:26;;;;;;;6.72;0.90;;;;;;;;;;5031220;28;20116;-66
2024/02/13 03:29:51;;;;;;;7.20;0.88;;;;;;;;;;5030433;28;20552;-67
2024/02/13 03:32:17;;;;;;;3.38;0.90;;;;;;;;;;5031229;28;20358;-67
2024/02/13 03:34:43;;;;;;;11.98;1.20;;;;;;;;;;5031041;28;20064;-66
2024/02/13 03:37:08;;;;;;;4.25;1.13;;;;;;;;;;5030383;28;20069;-68
2024/02/13 03:39:33;;;;;;;1.70;1.05;;;;;;;;;;5030513;28;20048;-67
2024/02/13 03:41:59;;;;;;;1.92;0.93;;;;;;;;;;5031100;28;20036;-67
2024/02/13 03:44:25;;;;;;;4.38;0.95;;;;;;;;;;5030574;28;20061;-67
2024/02/13 03:46:51;;;;;;;5.70;0.90;;;;;;;;;;5030550;28;20107;-66
2024/02/13 03:49:16;;;;;;;1.15;0.57;;;;;;;;;;5031209;28;20373;-67
2024/02/13 03:51:42;;;;;;;10.90;1.15;;;;;;;;;;5030774;28;20049;-66
2024/02/13 03:54:08;;;;;;;2.95;0.70;;;;;;;;;;5030388;28;20041;-68
2024/02/13 03:56:34;;;;;;;2.45;0.80;;;;;;;;;;5030756;28;20036;-67
2024/02/13 03:59:00;;;;;;;4.05;0.80;;;;;;;;;;5030272;28;20396;-69
2024/02/13 04:01:25;;;;;;;6.90;0.60;;;;;;;;;;5030301;28;20037;-68
2024/02/13 04:03:50;;;;;;;3.42;0.55;;;;;;;;;;5030275;28;20508;-68
2024/02/13 04:06:16;;;;;;;6.60;0.93;;;;;;;;;;5028676;28;20053;-68
2024/02/13 04:08:45;;;;;;;5.45;1.08;;;;;;;;;;5030119;28;20029;-68
2024/02/13 04:11:11;;;;;;;2.88;0.77;;;;;;;;;;5030424;28;20029;-68
2024/02/13 04:13:36;;;;;;;6.90;0.93;;;;;;;;;;5030448;28;20041;-68
2024/02/13 04:16:02;;;;;;;8.35;1.30;;;;;;;;;;5029992;28;20103;-67
2024/02/13 04:18:27;;;;;;;6.07;1.25;;;;;;;;;;5030154;28;20045;-67
2024/02/13 04:20:53;;;;;;;3.35;1.25;;;;;;;;;;5030289;28;20064;-67
2024/02/13 04:23:19;;;;;;;6.15;0.82;;;;;;;;;;5028738;28;20531;-68
2024/02/13 04:25:45;;;;;;;6.68;1.17;;;;;;;;;;5030089;28;20037;-67
2024/02/13 04:28:10;;;;;;;1.23;0.57;;;;;;;;;;5028882;28;20111;-67
2024/02/13 04:30:40;;;;;;;5.53;0.80;;;;;;;;;;5030030;28;20052;-68
2024/02/13 04:33:08;;;;;;;2.17;0.77;;;;;;;;;;5030106;28;20048;-67
2024/02/13 04:35:34;;;;;;;1.92;0.80;;;;;;;;;;5030122;28;20051;-67
2024/02/13 04:38:00;;;;;;;5.28;0.95;;;;;;;;;;5030118;28;20524;-67
2024/02/13 04:40:25;;;;;;;5.30;0.70;;;;;;;;;;5028413;28;20440;-67
2024/02/13 04:42:51;;;;;;;0.57;0.30;;;;;;;;;;5030238;28;20034;-66
2024/02/13 04:45:16;;;;;;;2.15;0.63;;;;;;;;;;5029858;28;20116;-67
2024/02/13 04:47:42;;;;;;;12.88;1.20;;;;;;;;;;5029684;28;20087;-67
2024/02/13 04:50:07;;;;;;;2.42;0.55;;;;;;;;;;5023651;28;20042;-67
2024/02/13 04:52:34;;;;;;;6.03;0.82;;;;;;;;;;5032551;28;20083;-67
2024/02/13 04:54:59;;;;;;;2.83;0.68;;;;;;;;;;5033215;28;20041;-67
2024/02/13 04:57:25;;;;;;;1.10;0.60;;;;;;;;;;5034178;28;20045;-67
2024/02/13 04:59:50;;;;;;;1.90;0.63;;;;;;;;;;5033386;28;20044;-68
2024/02/13 05:02:24;;;;;;;3.67;0.60;;;;;;;;;;5033550;28;20069;-67
2024/02/13 05:07:35;;;;;;;2.90;1.15;;;;;;;;;;5033195;28;20096;-67
2024/02/13 05:10:02;;;;;;;4.63;0.70;;;;;;;;;;5032390;28;20047;-68
2024/02/13 05:12:27;;;;;;;3.38;0.50;;;;;;;;;;5033374;28;20073;-67
2024/02/13 05:14:53;;;;;;;5.50;0.40;;;;;;;;;;5016314;28;20572;-67
2024/02/13 05:17:19;;;;;;;2.88;0.75;;;;;;;;;;5030494;28;20400;-68
2024/02/13 05:19:45;;;;;;;4.63;0.70;;;;;;;;;;5033490;28;20117;-67
2024/02/13 05:22:12;;;;;;;2.95;0.40;;;;;;;;;;5033672;28;20137;-68
2024/02/13 05:24:39;;;;;;;6.13;0.82;;;;;;;;;;5033404;28;20037;-67
2024/02/13 05:27:07;;;;;;;1.50;0.80;;;;;;;;;;5031766;28;20033;-67
2024/02/13 05:29:37;;;;;;;1.92;0.80;;;;;;;;;;5033428;28;20037;-67
2024/02/13 05:32:03;;;;;;;1.80;0.80;;;;;;;;;;5028240;28;20052;-68
2024/02/13 05:34:28;;;;;;;1.95;0.57;;;;;;;;;;5031662;28;20116;-67
2024/02/13 05:36:58;;;;;;;0.65;0.40;;;;;;;;;;5033423;28;20029;-67
2024/02/13 05:39:23;;;;;;;4.45;0.57;;;;;;;;;;5032084;28;20033;-67
2024/02/13 05:41:48;;;;;;;2.20;0.60;;;;;;;;;;5032259;28;20523;-67
2024/02/13 05:44:14;;;;;;;3.97;0.93;;;;;;;;;;5033347;28;20052;-67
2024/02/13 05:46:39;;;;;;;1.98;0.57;;;;;;;;;;5032909;28;20130;-67
2024/02/13 05:49:04;;;;;;;1.45;0.55;;;;;;;;;;5032860;28;20026;-67
2024/02/13 05:51:30;;;;;;;7.72;0.80;;;;;;;;;;5031032;28;20045;-67
2024/02/13 05:53:55;;;;;;;3.70;0.98;;;;;;;;;;5032670;28;20507;-67
2024/02/13 05:56:20;;;;;;;5.47;0.65;;;;;;;;;;5032606;28;20025;-67
2024/02/13 05:58:47;;;;;;;1.27;0.55;;;;;;;;;;5032661;28;20124;-67
2024/02/13 06:01:13;;;;;;;5.60;0.55;;;;;;;;;;5032939;28;20045;-67
2024/02/13 06:03:39;;;;;;;3.95;1.00;;;;;;;;;;5032523;28;20033;-69
2024/02/13 06:06:05;;;;;;;4.35;0.68;;;;;;;;;;5032285;28;20084;-67
2024/02/13 06:08:30;;;;;;;3.03;0.93;;;;;;;;;;5032556;28;20061;-67
2024/02/13 06:10:57;;;;;;;3.17;0.80;;;;;;;;;;5032472;28;20041;-67
2024/02/13 06:13:23;;;;;;;3.00;0.77;;;;;;;;;;5032559;28;20040;-67
2024/02/13 06:15:49;;;;;;;4.55;0.60;;;;;;;;;;5031234;28;20033;-67
2024/02/13 06:18:14;;;;;;;0.75;0.45;;;;;;;;;;5032422;28;20033;-68
2024/02/13 06:20:39;;;;;;;3.00;0.60;;;;;;;;;;5032266;28;20624;-68
2024/02/13 06:23:06;;;;;;;1.48;0.50;;;;;;;;;;5032354;28;20441;-68
2024/02/13 06:25:31;;;;;;;2.55;0.63;;;;;;;;;;5031929;28;20516;-66
2024/02/13 06:27:56;;;;;;;6.03;0.65;;;;;;;;;;5031002;28;20118;-67
2024/02/13 06:30:22;;;;;;;5.43;0.60;;;;;;;;;;5027932;28;20073;-68
2024/02/13 06:32:47;;;;;;;2.97;0.73;;;;;;;;;;5032179;28;20036;-67
2024/02/13 06:35:13;;;;;;;2.67;1.83;;;;;;;;;;5034770;28;20034;-68
2024/02/13 06:37:40;;;;;;;3.85;0.93;;;;;;;;;;5031403;28;20526;-68
2024/02/13 06:40:07;;;;;;;1.75;0.93;;;;;;;;;;5031299;28;20034;-69
2024/02/13 06:42:32;;;;;;;2.80;0.50;;;;;;;;;;5031723;28;20026;-68
2024/02/13 06:44:58;;;;;;;2.25;0.65;;;;;;;;;;5030558;28;20429;-68
2024/02/13 06:47:25;;;;;;;3.90;0.40;;;;;;;;;;5032125;28;20429;-67
2024/02/13 06:49:51;;;;;;;0.98;0.65;;;;;;;;;;5031704;28;20033;-67
2024/02/13 06:52:17;;;;;;;0.95;0.50;;;;;;;;;;5031625;28;20492;-68
2024/02/13 06:54:43;;;;;;;4.50;0.60;;;;;;;;;;5031427;28;20036;-67
2024/02/13 06:57:09;;;;;;;6.72;0.80;;;;;;;;;;5021577;28;20029;-68
2024/02/13 06:59:34;;;;;;;3.10;0.60;;;;;;;;;;5031025;28;20094;-68
2024/02/13 07:01:59;;;;;;;6.05;0.75;;;;;;;;;;5031606;28;20048;-67
2024/02/13 07:04:25;;;;;;;5.35;0.88;;;;;;;;;;5031403;28;20048;-67
2024/02/13 07:06:55;;;;;;;3.40;0.50;;;;;;;;;;5030841;28;20060;-67
2024/02/13 07:09:22;;;;;;;1.27;0.50;;;;;;;;;;5031645;28;20037;-67
2024/02/13 07:11:48;;;;;;;5.20;0.57;;;;;;;;;;5030188;28;20033;-67
2024/02/13 07:14:13;;;;;;;3.65;0.93;;;;;;;;;;5029353;28;20108;-68
2024/02/13 07:16:39;;;;;;;1.20;0.57;;;;;;;;;;5031295;28;20036;-67
2024/02/13 07:19:05;;;;;;;0.60;0.40;;;;;;;;;;5031412;28;20037;-68
2024/02/13 07:21:33;;;;;;;1.75;0.47;;;;;;;;;;5030932;28;20116;-68
2024/02/13 07:23:58;;;;;;;4.63;0.77;;;;;;;;;;5030950;28;20178;-68
2024/02/13 07:26:24;;;;;;;3.85;0.73;;;;;;;;;;5031507;28;20536;-67
2024/02/13 07:28:50;;;;;;;1.90;0.70;;;;;;;;;;5030804;28;20049;-68
2024/02/13 07:31:19;;;;;;;1.40;0.55;;;;;;;;;;5029705;28;20120;-67
2024/02/13 07:33:48;;;;;;;3.65;0.50;;;;;;;;;;5031228;28;20111;-67
2024/02/13 07:36:13;;;;;;;4.85;0.52;;;;;;;;;;5029165;28;20065;-69
2024/02/13 07:38:39;;;;;;;2.30;0.80;;;;;;;;;;5030008;28;20087;-68
2024/02/13 07:41:06;;;;;;;1.02;0.63;;;;;;;;;;5030019;28;20137;-68
2024/02/13 07:43:32;;;;;;;4.28;0.90;;;;;;;;;;5028587;28;20069;-68
2024/02/13 07:45:57;;;;;;;3.45;1.77;;;;;;;;;;5027964;28;20693;-68
2024/02/13 07:48:23;;;;;;;5.85;1.50;;;;;;;;;;5030779;28;20021;-68
2024/02/13 07:50:48;;;;;;;2.40;1.05;;;;;;;;;;5029668;28;20128;-67
2024/02/13 07:53:13;;;;;;;1.92;0.80;;;;;;;;;;5030607;28;20087;-68
2024/02/13 07:55:39;;;;;;;3.88;0.80;;;;;;;;;;5030384;28;20522;-67
2024/02/13 07:58:04;;;;;;;4.60;0.98;;;;;;;;;;5029845;28;20068;-68
2024/02/13 08:00:33;;;;;;;0.70;0.45;;;;;;;;;;5028838;28;20040;-67
2024/02/13 08:02:59;;;;;;;3.20;0.70;;;;;;;;;;5029798;28;20124;-67
2024/02/13 08:05:25;;;;;;;5.80;1.48;;;;;;;;;;5028538;28;20624;-67
2024/02/13 08:07:50;;;;;;;4.53;1.05;;;;;;;;;;5029508;28;20076;-67
2024/02/13 08:10:15;;;;;;;2.88;0.70;;;;;;;;;;5030520;28;20046;-68
2024/02/13 08:12:41;;;;;;;1.85;0.75;;;;;;;;;;5030070;28;20108;-66
2024/02/13 08:15:08;;;;;;;4.03;0.98;;;;;;;;;;5029583;28;20072;-68
2024/02/13 08:17:33;;;;;;;1.63;0.80;;;;;;;;;;5030682;28;20060;-67
2024/02/13 08:20:04;;;;;;;4.32;0.88;;;;;;;;;;5030446;28;20087;-67
2024/02/13 08:22:29;;;;;;;2.60;0.80;;;;;;;;;;5028871;28;20076;-68
2024/02/13 08:24:55;;;;;;;3.50;1.05;;;;;;;;;;5012685;28;20609;-66
2024/02/13 08:27:20;;;;;;;1.77;0.73;;;;;;;;;;5028380;28;20121;-68
2024/02/13 08:29:45;;;;;;;3.00;0.82;;;;;;;;;;5029644;28;20037;-68
2024/02/13 08:32:11;;;;;;;2.80;1.00;;;;;;;;;;5029182;28;20388;-67
2024/02/13 08:34:38;;;;;;;2.13;0.85;;;;;;;;;;5030127;28;20037;-67
2024/02/13 08:37:03;;;;;;;3.20;0.90;;;;;;;;;;5028248;28;20040;-67
2024/02/13 08:39:29;;;;;;;2.58;0.98;;;;;;;;;;5030282;28;20033;-67
2024/02/13 08:41:54;;;;;;;4.38;1.00;;;;;;;;;;5029811;28;20404;-67
2024/02/13 08:44:21;;;;;;;0.95;0.57;;;;;;;;;;5025353;28;20124;-69
2024/02/13 08:46:46;;;;;;;0.88;0.55;;;;;;;;;;5029282;28;20037;-68
2024/02/13 08:49:12;;;;;;;3.58;1.23;;;;;;;;;;5028237;28;20037;-69
2024/02/13 08:51:37;;;;;;;2.25;1.42;;;;;;;;;;5034370;28;20041;-67
2024/02/13 08:54:03;;;;;;;6.65;1.00;;;;;;;;;;5028338;28;20544;-68
2024/02/13 08:56:28;;;;;;;4.10;0.80;;;;;;;;;;5012323;28;20365;-67
2024/02/13 08:58:54;;;;;;;2.42;0.60;;;;;;;;;;5029279;28;20048;-67
2024/02/13 09:01:20;;;;;;;1.73;0.80;;;;;;;;;;5029507;28;20376;-66
2024/02/13 09:03:47;;;;;;;1.80;0.70;;;;;;;;;;5028141;28;20045;-67
2024/02/13 09:06:13;;;;;;;3.28;1.67;;;;;;;;;;5028905;28;20103;-67
2024/02/13 09:08:41;;;;;;;5.20;0.80;;;;;;;;;;5028055;28;20059;-68
2024/02/13 09:11:07;;;;;;;5.03;0.85;;;;;;;;;;5029994;28;20037;-68
2024/02/13 09:13:33;;;;;;;4.20;1.63;;;;;;;;;;5029212;28;20041;-68
2024/02/13 09:15:58;;;;;;;5.57;1.70;;;;;;;;;;5028173;28;20025;-69
2024/02/13 09:18:23;;;;;;;4.30;0.98;;;;;;;;;;5024210;28;20044;-70
2024/02/13 09:20:49;;;;;;;3.55;0.80;;;;;;;;;;5009330;28;20519;-68
2024/02/13 09:23:18;;;;;;;4.30;1.15;;;;;;;;;;5018281;28;20033;-70
2024/02/13 09:25:49;;;;;;;2.95;0.80;;;;;;;;;;5014725;28;20045;-69
2024/02/13 09:28:14;;;;;;;2.78;1.00;;;;;;;;;;5018132;28;20452;-68
2024/02/13 09:30:39;;;;;;;6.25;0.80;;;;;;;;;;5024671;28;20044;-70
2024/02/13 09:33:05;;;;;;;10.85;1.15;;;;;;;;;;5024153;28;20047;-69
2024/02/13 09:35:30;;;;;;;2.65;0.85;;;;;;;;;;5024574;28;20092;-67
2024/02/13 09:37:55;;;;;;;4.18;0.82;;;;;;;;;;5026695;28;20045;-66
2024/02/13 09:40:23;;;;;;;5.55;0.82;;;;;;;;;;5027393;28;20886;-68
2024/02/13 09:42:49;;;;;;;3.33;1.00;;;;;;;;;;5025940;28;20033;-67
2024/02/13 09:45:16;;;;;;;3.63;0.80;;;;;;;;;;5027101;28;20045;-68
2024/02/13 09:47:42;;;;;;;4.80;1.00;;;;;;;;;;5028412;28;20063;-68
2024/02/13 09:50:12;;;;;;;5.25;1.02;;;;;;;;;;5028171;28;20628;-69
2024/02/13 09:52:48;;;;;;;3.13;0.98;;;;;;;;;;5021685;28;20050;-68
2024/02/13 09:55:18;;;;;;;3.75;0.82;;;;;;;;;;5021900;28;20037;-68
2024/02/13 09:57:43;;;;;;;3.53;1.05;;;;;;;;;;5025646;28;20041;-68
2024/02/13 10:00:09;;;;;;;4.10;1.02;;;;;;;;;;5029215;28;20033;-68
2024/02/13 10:02:41;;;;;;;10.25;2.45;;;;;;;;;;5025139;28;20076;-67
2024/02/13 10:05:10;;;;;;;8.32;3.10;;;;;;;;;;5027914;28;20041;-69
2024/02/13 10:08:18;;;;;;;20.13;7.53;;;;;;;;;;5010779;28;20033;-68
2024/02/13 10:24:28;;;;;;;4.32;2.03;;;;;;;;;;5013514;28;20091;-69
2024/02/13 10:26:53;;;;;;;7.00;2.65;;;;;;;;;;5025097;28;20136;-67
2024/02/13 10:29:19;;;;;;;11.48;2.72;;;;;;;;;;5008308;28;20052;-68
2024/02/13 10:31:44;;;;;;;9.68;3.03;;;;;;;;;;5025298;28;20176;-68
2024/02/13 10:34:11;;;;;;;13.38;3.95;;;;;;;;;;5024047;28;20033;-68
2024/02/13 10:36:38;;;;;;;8.73;3.45;;;;;;;;;;5025130;28;20072;-67
2024/02/13 10:39:08;;;;;;;12.45;4.07;;;;;;;;;;5010348;28;20041;-68
2024/02/13 10:41:39;;;;;;;8.68;3.20;;;;;;;;;;5025558;28;20057;-68
2024/02/13 10:44:06;;;;;;;11.68;3.67;;;;;;;;;;5027740;28;20068;-68
2024/02/13 10:46:38;;;;;;;8.68;2.20;;;;;;;;;;5018713;28;20033;-68
2024/02/13 10:49:15;;;;;;;5.95;2.72;;;;;;;;;;5026629;28;20065;-68
2024/02/13 10:51:41;;;;;;;8.15;3.00;;;;;;;;;;5026929;28;20124;-68
2024/02/13 10:54:09;;;;;;;6.45;2.60;;;;;;;;;;5027428;28;20052;-68
2024/02/13 10:56:36;;;;;;;7.57;2.45;;;;;;;;;;5024488;28;20037;-67
2024/02/13 10:59:02;;;;;;;6.40;2.38;;;;;;;;;;5027313;28;20041;-68
2024/02/13 11:01:31;;;;;;;5.53;1.60;;;;;;;;;;5027214;28;20049;-68
2024/02/13 11:03:59;;;;;;;5.28;1.65;;;;;;;;;;5026026;28;20037;-68
2024/02/13 11:06:24;;;;;;;5.40;1.55;;;;;;;;;;5027283;28;20041;-67
2024/02/13 11:08:50;;;;;;;5.43;1.40;;;;;;;;;;5026408;28;20044;-68
2024/02/13 11:11:16;;;;;;;9.13;1.60;;;;;;;;;;5026873;28;20045;-68
2024/02/13 11:13:42;;;;;;;6.00;1.65;;;;;;;;;;5008951;28;20037;-70
2024/02/13 11:16:10;;;;;;;2.42;1.17;;;;;;;;;;5025649;28;20037;-67
2024/02/13 11:18:44;;;;;;;3.63;1.70;;;;;;;;;;5025339;28;20041;-68
2024/02/13 11:21:10;;;;;;;;;;;;;;;;;;5025478;28;20661;-70
2024/02/13 11:23:37;;;;;;;5.00;1.77;;;;;;;;;;5026602;28;19913;-68
2024/02/13 11:26:03;;;;;;;4.53;2.17;;;;;;;;;;5026017;28;20036;-68
2024/02/13 11:28:38;;;;;;;14.15;2.10;;;;;;;;;;5026498;28;20033;-70
2024/02/13 11:31:14;;;;;;;8.43;2.05;;;;;;;;;;5026901;28;20033;-68
2024/02/13 11:34:00;;;;;;;5.43;1.90;;;;;;;;;;5025771;28;20396;-67
2024/02/13 11:36:27;;;;;;;5.20;1.67;;;;;;;;;;5020864;28;20461;-67
2024/02/13 11:38:57;;;;;;;4.80;1.83;;;;;;;;;;5026673;28;20116;-68
2024/02/13 11:41:22;;;;;;;4.80;2.90;;;;;;;;;;5025589;28;20077;-68
2024/02/13 11:43:48;;;;;;;3.47;1.65;;;;;;;;;;5024678;28;20510;-69
2024/02/13 11:46:13;;;;;;;4.15;1.67;;;;;;;;;;5026581;28;20057;-70
2024/02/13 11:48:40;;;;;;;2.13;1.13;;;;;;;;;;5026422;28;20205;-68
2024/02/13 11:51:06;;;;;;;1.50;1.02;;;;;;;;;;5026046;28;20037;-70
2024/02/13 11:53:31;;;;;;;1.85;0.98;;;;;;;;;;5026382;28;20053;-69
2024/02/13 11:55:57;;;;;;;4.65;1.23;;;;;;;;;;5024386;28;20600;-68
2024/02/13 11:58:23;;;;;;;6.05;1.50;;;;;;;;;;5022436;28;20030;-69
2024/02/13 12:01:03;;;;;;;2.60;1.20;;;;;;;;;;5022339;28;20116;-69
2024/02/13 12:03:29;;;;;;;1.50;0.65;;;;;;;;;;5024386;28;20073;-69
2024/02/13 12:05:55;;;;;;;2.38;1.08;;;;;;;;;;5026047;28;20510;-68
2024/02/13 12:08:21;;;;;;;1.38;0.80;;;;;;;;;;5008003;28;20049;-69
2024/02/13 12:10:48;;;;;;;3.80;1.13;;;;;;;;;;5026199;28;20037;-69
2024/02/13 12:13:14;;;;;;;4.05;1.00;;;;;;;;;;5024474;28;20094;-68
2024/02/13 12:15:41;;;;;;;5.78;1.30;;;;;;;;;;5023957;28;20037;-69
2024/02/13 12:18:11;;;;;;;7.28;1.40;;;;;;;;;;5025387;28;20233;-69
2024/02/13 12:20:37;;;;;;;3.75;1.30;;;;;;;;;;5017440;28;20048;-69
2024/02/13 12:23:06;;;;;;;3.97;1.20;;;;;;;;;;5020333;28;20033;-68
2024/02/13 12:25:32;;;;;;;4.47;1.30;;;;;;;;;;5024506;28;20162;-68
2024/02/13 12:28:01;;;;;;;2.88;1.42;;;;;;;;;;5025728;28;20051;-68
2024/02/13 12:30:26;;;;;;;5.88;1.83;;;;;;;;;;5023816;28;20606;-68
2024/02/13 12:32:52;;;;;;;6.55;2.83;;;;;;;;;;5024763;28;20051;-68
2024/02/13 12:35:31;;;;;;;2.53;1.33;;;;;;;;;;5024300;28;20041;-67
2024/02/13 12:38:07;;;;;;;4.93;1.23;;;;;;;;;;5024550;28;20041;-68
2024/02/13 12:40:34;;;;;;;2.88;1.55;;;;;;;;;;5024070;28;20115;-68
2024/02/13 12:43:02;;;;;;;5.82;1.63;;;;;;;;;;5021592;28;20485;-70
2024/02/13 12:45:30;;;;;;;4.82;1.25;;;;;;;;;;5022986;28;20481;-68
2024/02/13 12:47:56;;;;;;;6.45;2.15;;;;;;;;;;5024260;28;20040;-69
2024/02/13 12:50:24;;;;;;;5.30;2.50;;;;;;;;;;5025717;28;20033;-68
2024/02/13 12:52:49;;;;;;;7.28;1.73;;;;;;;;;;5021616;28;20040;-68
2024/02/13 12:55:16;;;;;;;5.78;2.25;;;;;;;;;;5024496;28;20053;-69
2024/02/13 12:57:42;;;;;;;4.53;1.77;;;;;;;;;;5024617;28;20034;-68
2024/02/13 13:00:14;;;;;;;2.67;1.40;;;;;;;;;;5024990;28;20508;-68
2024/02/13 13:02:42;;;;;;;7.78;1.80;;;;;;;;;;5023938;28;20041;-68
2024/02/13 13:05:07;;;;;;;3.95;1.80;;;;;;;;;;5023488;28;20053;-68
2024/02/13 13:07:32;;;;;;;4.35;1.90;;;;;;;;;;5018069;28;20045;-68
2024/02/13 13:09:58;;;;;;;4.75;2.03;;;;;;;;;;5025371;28;20076;-68
2024/02/13 13:12:23;;;;;;;3.53;1.88;;;;;;;;;;5025023;28;20057;-68
2024/02/13 13:14:48;;;;;;;3.58;2.03;;;;;;;;;;5027811;28;20080;-67
2024/02/13 13:17:14;;;;;;;5.95;2.08;;;;;;;;;;5028347;28;20025;-67
2024/02/13 13:19:40;;;;;;;3.38;2.08;;;;;;;;;;5021921;28;20084;-68
2024/02/13 13:22:05;;;;;;;4.25;2.20;;;;;;;;;;5028271;28;20048;-68
2024/02/13 13:24:31;;;;;;;6.80;2.15;;;;;;;;;;5028277;28;20056;-68
2024/02/13 13:26:57;;;;;;;9.07;2.40;;;;;;;;;;5021613;28;20131;-68
2024/02/13 13:29:22;;;;;;;3.72;1.77;;;;;;;;;;5028354;28;20043;-69
2024/02/13 13:31:48;;;;;;;4.57;1.58;;;;;;;;;;5028819;28;20095;-70
2024/02/13 13:34:19;;;;;;;6.60;1.67;;;;;;;;;;5027819;28;20578;-68
2024/02/13 13:36:45;;;;;;;3.88;2.30;;;;;;;;;;5028721;28;20033;-68
2024/02/13 13:39:10;;;;;;;3.75;2.13;;;;;;;;;;5027349;28;20041;-69
2024/02/13 13:41:41;;;;;;;4.60;2.08;;;;;;;;;;5021718;28;20044;-69
2024/02/13 13:44:10;;;;;;;11.93;2.22;;;;;;;;;;5028876;28;20041;-69
2024/02/13 13:46:36;;;;;;;8.00;1.92;;;;;;;;;;5011094;28;20030;-69
2024/02/13 13:49:01;;;;;;;7.95;2.22;;;;;;;;;;5027251;28;20048;-67
2024/02/13 13:51:30;;;;;;;9.30;2.75;;;;;;;;;;5029602;28;20044;-67
2024/02/13 13:53:55;;;;;;;6.82;2.40;;;;;;;;;;5025626;28;20045;-68
2024/02/13 13:56:22;;;;;;;4.43;2.60;;;;;;;;;;5029106;28;20416;-68
2024/02/13 13:58:47;;;;;;;8.30;2.45;;;;;;;;;;5027484;28;20057;-68
2024/02/13 14:01:12;;;;;;;6.22;2.75;;;;;;;;;;5030274;28;20059;-69
2024/02/13 14:03:39;;;;;;;3.67;1.80;;;;;;;;;;5027425;28;20034;-69
2024/02/13 14:06:05;;;;;;;3.40;1.60;;;;;;;;;;5031081;28;20087;-68
2024/02/13 14:08:30;;;;;;;3.67;1.27;;;;;;;;;;5030202;28;20060;-68
2024/02/13 14:10:56;;;;;;;2.88;1.20;;;;;;;;;;5036567;28;20103;-69
2024/02/13 14:13:22;;;;;;;2.85;1.27;;;;;;;;;;5028104;28;20665;-69
2024/02/13 14:15:48;;;;;;;1.90;1.13;;;;;;;;;;5027560;28;20103;-69
2024/02/13 14:18:14;;;;;;;1.48;0.88;;;;;;;;;;5028532;28;20036;-68
2024/02/13 14:20:40;;;;;;;2.83;1.10;;;;;;;;;;5028505;28;20038;-69
2024/02/13 14:23:07;;;;;;;2.03;1.00;;;;;;;;;;5027839;28;20045;-69
2024/02/13 14:25:35;;;;;;;1.50;0.90;;;;;;;;;;5025753;28;20293;-68
2024/02/13 14:28:01;;;;;;;1.30;0.80;;;;;;;;;;5026870;28;20056;-69
2024/02/13 14:30:29;;;;;;;2.00;1.20;;;;;;;;;;5027509;28;20041;-70
2024/02/13 14:32:55;;;;;;;4.10;1.77;;;;;;;;;;5027984;28;20125;-70
2024/02/13 14:35:20;;;;;;;3.85;1.65;;;;;;;;;;5010083;28;20022;-69
2024/02/13 14:37:47;;;;;;;3.92;1.70;;;;;;;;;;5027972;28;20396;-68
2024/02/13 14:40:13;;;;;;;5.15;2.22;;;;;;;;;;5025768;28;20477;-68
2024/02/13 14:42:40;;;;;;;3.13;2.00;;;;;;;;;;5027958;28;20398;-68
2024/02/13 14:45:06;;;;;;;3.53;1.60;;;;;;;;;;5026233;28;20072;-69
2024/02/13 14:47:31;;;;;;;4.28;2.20;;;;;;;;;;5027544;28;20489;-67
2024/02/13 14:49:57;;;;;;;5.82;1.70;;;;;;;;;;5027701;28;20045;-69
2024/02/13 14:52:26;;;;;;;4.18;1.73;;;;;;;;;;5027212;28;20041;-69
2024/02/13 14:54:52;;;;;;;2.95;1.55;;;;;;;;;;5024767;28;20524;-69